Terminal Aerodrome Forecast
Issued by NWS

Home | Current Version | Previous Version | Text Only | Print | Product List | Glossary On
Versions: 1 2 3 4 5 6 7 8 9 10 11 12 13 14 15
059
FTUS45 KTFX 062334
TAFHVR
TAF
KHVR 062334Z 0700/0724 28011KT P6SM BKN070
     FM070300 26015G25KT P6SM SCT070
     FM071500 24012KT P6SM SCT150
     FM071900 28016G28KT P6SM BKN150=

USA.gov is the U.S. government's official web portal to all federal, state and local government web resources and services.